Time;durP1;ratioP1;P1;durP2;ratioP2;P2;SDS_P1;SDS_P2;PMS_P1;PMS_P2;Temp;Humidity;BMP_temperature;BMP_pressure;BME280_temperature;BME280_humidity;BME280_pressure;Samples;Min_cycle;Max_cycle;Signal;HPM_P1;HPM_P2
2023/07/20 00:00:30;;;;;;;15.80;6.22;;;18.00;99.90;;;;;;5133609;27;20415;-64
2023/07/20 00:03:18;;;;;;;11.60;6.45;;;17.90;99.90;;;;;;5129492;27;20047;-65
2023/07/20 00:05:46;;;;;;;8.77;6.05;;;18.00;99.90;;;;;;5127813;27;20039;-65
2023/07/20 00:08:12;;;;;;;;;;;17.90;99.90;;;;;;5132551;27;20039;-65
2023/07/20 00:10:40;;;;;;;11.82;6.57;;;18.00;99.90;;;;;;5133100;27;19920;-64
2023/07/20 00:13:07;;;;;;;11.82;6.22;;;18.00;99.90;;;;;;5132728;27;20059;-65
2023/07/20 00:15:34;;;;;;;11.65;6.25;;;17.80;99.90;;;;;;5132367;27;20479;-65
2023/07/20 00:18:01;;;;;;;13.50;6.72;;;17.90;99.90;;;;;;5123671;27;20051;-64
2023/07/20 00:20:28;;;;;;;9.60;6.28;;;17.80;99.90;;;;;;5131254;27;20039;-65
2023/07/20 00:22:57;;;;;;;13.02;6.07;;;17.70;99.90;;;;;;5128381;27;20536;-65
2023/07/20 00:25:24;;;;;;;11.35;6.35;;;17.70;99.90;;;;;;5112037;27;20134;-64
2023/07/20 00:27:51;;;;;;;;;;;17.60;99.90;;;;;;5131196;27;20042;-65
2023/07/20 00:30:19;;;;;;;14.80;7.03;;;17.70;99.90;;;;;;5111335;27;19920;-64
2023/07/20 00:32:46;;;;;;;13.68;6.38;;;17.70;99.90;;;;;;5114542;27;20035;-64
2023/07/20 00:35:13;;;;;;;10.35;6.15;;;17.70;99.90;;;;;;5112066;27;20125;-65
2023/07/20 00:37:40;;;;;;;9.50;6.35;;;17.60;99.90;;;;;;5108063;27;20061;-65
2023/07/20 00:40:07;;;;;;;14.48;6.93;;;17.60;99.90;;;;;;5110154;27;20126;-65
2023/07/20 00:42:34;;;;;;;10.27;6.90;;;17.60;99.90;;;;;;5110930;27;20061;-65
2023/07/20 00:45:02;;;;;;;10.45;6.22;;;17.60;99.90;;;;;;5109852;27;20036;-65
2023/07/20 00:47:29;;;;;;;;;;;17.50;99.90;;;;;;5130570;27;20446;-65
2023/07/20 00:49:55;;;;;;;11.60;7.28;;;17.50;99.90;;;;;;5127958;27;20418;-65
2023/07/20 00:52:23;;;;;;;13.00;6.80;;;17.60;99.90;;;;;;5112200;27;20075;-65
2023/07/20 00:54:51;;;;;;;11.35;7.45;;;17.60;99.90;;;;;;5110627;27;20423;-64
2023/07/20 00:57:19;;;;;;;11.98;7.35;;;17.60;99.90;;;;;;5110577;27;20046;-64
2023/07/20 00:59:46;;;;;;;13.35;7.68;;;17.60;99.90;;;;;;5129287;27;20078;-64
2023/07/20 01:02:12;;;;;;;12.85;6.93;;;17.60;99.90;;;;;;5129081;27;20036;-65
2023/07/20 01:04:40;;;;;;;17.50;7.38;;;17.50;99.90;;;;;;5105872;27;20047;-64
2023/07/20 01:07:30;;;;;;;14.75;7.40;;;17.50;99.90;;;;;;5109414;27;20075;-64
2023/07/20 01:10:13;;;;;;;11.75;6.68;;;17.50;99.90;;;;;;5108048;27;20138;-64
2023/07/20 01:12:47;;;;;;;10.20;6.75;;;17.40;99.90;;;;;;5112797;27;20529;-64
2023/07/20 01:15:14;;;;;;;10.38;7.00;;;17.60;99.90;;;;;;5113341;27;20043;-65
2023/07/20 01:17:40;;;;;;;9.57;6.20;;;17.60;99.90;;;;;;5110324;27;20046;-65
2023/07/20 01:20:29;;;;;;;10.35;6.82;;;17.50;99.90;;;;;;5114200;27;20483;-64
2023/07/20 01:23:23;;;;;;;15.88;7.00;;;17.50;99.90;;;;;;5132870;27;20046;-64
2023/07/20 01:26:25;;;;;;;10.15;6.25;;;17.50;99.90;;;;;;5123674;27;20507;-64
2023/07/20 01:29:27;;;;;;;11.73;6.40;;;17.40;99.90;;;;;;5079449;27;20046;-65
2023/07/20 01:31:56;;;;;;;12.38;5.70;;;17.30;99.90;;;;;;5112768;27;20507;-65
2023/07/20 01:34:24;;;;;;;14.75;6.65;;;17.20;99.90;;;;;;5122851;27;20035;-65
2023/07/20 01:36:53;;;;;;;12.32;6.13;;;17.10;99.90;;;;;;5114099;27;20053;-64
2023/07/20 01:39:21;;;;;;;8.73;5.53;;;17.10;99.90;;;;;;5131982;27;20035;-64
2023/07/20 01:41:48;;;;;;;10.00;5.78;;;17.10;99.90;;;;;;5129412;27;20108;-64
2023/07/20 01:44:15;;;;;;;10.68;5.53;;;17.10;99.90;;;;;;5113950;28;20092;-64
2023/07/20 01:46:42;;;;;;;10.75;5.88;;;17.00;99.90;;;;;;5112778;27;20058;-64
2023/07/20 01:49:09;;;;;;;9.82;5.47;;;16.90;99.90;;;;;;5131974;28;20540;-64
2023/07/20 01:51:36;;;;;;;11.98;6.40;;;16.90;99.90;;;;;;5131902;27;20395;-65
2023/07/20 01:54:02;;;;;;;11.63;5.63;;;17.00;99.90;;;;;;5112984;28;20050;-64
2023/07/20 01:56:29;;;;;;;13.13;5.97;;;17.00;99.90;;;;;;5122070;28;20494;-64
2023/07/20 01:58:56;;;;;;;15.43;6.45;;;17.00;99.90;;;;;;5096309;28;20039;-64
2023/07/20 02:01:23;;;;;;;8.95;6.20;;;17.00;99.90;;;;;;5112594;28;20053;-65
2023/07/20 02:03:50;;;;;;;10.82;6.18;;;17.10;99.90;;;;;;5112342;28;20043;-65
2023/07/20 02:06:16;;;;;;;12.80;5.32;;;17.10;99.90;;;;;;5113484;28;20035;-65
2023/07/20 02:08:43;;;;;;;10.13;6.22;;;17.10;99.90;;;;;;5131592;27;20036;-65
2023/07/20 02:11:10;;;;;;;13.10;6.53;;;17.20;99.90;;;;;;5132392;27;20488;-65
2023/07/20 02:13:37;;;;;;;11.45;7.95;;;17.10;99.90;;;;;;5112816;28;20379;-65
2023/07/20 02:16:04;;;;;;;10.25;6.60;;;17.30;99.90;;;;;;5112733;28;20423;-65
2023/07/20 02:18:31;;;;;;;8.40;5.75;;;17.30;99.90;;;;;;5113174;27;20039;-64
2023/07/20 02:20:57;;;;;;;13.23;5.68;;;17.20;99.90;;;;;;5132295;28;20388;-64
2023/07/20 02:23:24;;;;;;;9.10;5.60;;;17.20;99.90;;;;;;5113271;28;20101;-64
2023/07/20 02:25:51;;;;;;;9.27;5.13;;;17.10;99.90;;;;;;5112572;28;20043;-64
2023/07/20 02:28:18;;;;;;;7.30;4.70;;;17.10;99.90;;;;;;5113223;28;20058;-64
2023/07/20 02:30:45;;;;;;;10.48;5.57;;;17.00;99.90;;;;;;5113189;28;20910;-64
2023/07/20 02:33:11;;;;;;;7.18;5.03;;;17.00;99.90;;;;;;5129437;27;20043;-64
2023/07/20 02:35:40;;;;;;;8.75;4.57;;;16.90;99.90;;;;;;5111670;28;20043;-64
2023/07/20 02:38:07;;;;;;;8.30;5.47;;;16.90;99.90;;;;;;5131469;28;20043;-64
2023/07/20 02:40:34;;;;;;;10.75;5.63;;;16.90;99.90;;;;;;5113392;28;20047;-64
2023/07/20 02:43:01;;;;;;;11.75;5.72;;;16.80;99.90;;;;;;5126120;28;20403;-64
2023/07/20 02:45:28;;;;;;;11.98;6.00;;;16.90;99.90;;;;;;5113986;27;20047;-65
2023/07/20 02:47:54;;;;;;;8.30;5.00;;;17.00;99.90;;;;;;5131594;27;20502;-65
2023/07/20 02:50:22;;;;;;;11.65;5.43;;;17.00;99.90;;;;;;5115754;27;20035;-65
2023/07/20 02:52:50;;;;;;;9.30;5.05;;;17.00;99.90;;;;;;5116446;27;20268;-65
2023/07/20 02:55:16;;;;;;;8.77;5.68;;;16.90;99.90;;;;;;5116947;27;20135;-65
2023/07/20 02:57:43;;;;;;;9.77;5.25;;;17.00;99.90;;;;;;5130995;27;20479;-65
2023/07/20 03:00:11;;;;;;;10.10;5.47;;;17.00;99.90;;;;;;5135260;27;20047;-65
2023/07/20 03:02:38;;;;;;;9.50;5.35;;;17.00;99.90;;;;;;5116548;27;20461;-65
2023/07/20 03:05:07;;;;;;;;;;;17.00;99.90;;;;;;5117340;27;20047;-65
2023/07/20 03:07:33;;;;;;;8.25;5.00;;;17.00;99.90;;;;;;5115172;27;19930;-65
2023/07/20 03:10:00;;;;;;;8.05;4.95;;;17.00;99.90;;;;;;5116742;27;20449;-65
2023/07/20 03:12:27;;;;;;;7.57;4.82;;;17.10;99.90;;;;;;5135341;27;20046;-65
2023/07/20 03:14:54;;;;;;;7.70;4.88;;;17.00;99.90;;;;;;5116734;27;20078;-65
2023/07/20 03:17:21;;;;;;;9.15;4.97;;;16.90;99.90;;;;;;5114039;27;20134;-65
2023/07/20 03:19:48;;;;;;;8.70;4.65;;;16.90;99.90;;;;;;5134549;27;20407;-65
2023/07/20 03:22:14;;;;;;;10.52;5.65;;;16.90;99.90;;;;;;5116435;27;20046;-65
2023/07/20 03:24:41;;;;;;;10.68;5.03;;;16.90;99.90;;;;;;5115185;27;20039;-65
2023/07/20 03:27:08;;;;;;;6.82;5.07;;;16.90;99.90;;;;;;5116521;27;20495;-65
2023/07/20 03:29:35;;;;;;;11.02;4.85;;;16.90;99.90;;;;;;5115448;27;20039;-65
2023/07/20 03:32:02;;;;;;;7.97;4.82;;;16.80;99.90;;;;;;5114156;27;20145;-65
2023/07/20 03:34:29;;;;;;;8.60;5.18;;;16.80;99.90;;;;;;5112802;27;20486;-65
2023/07/20 03:36:56;;;;;;;10.20;5.70;;;16.80;99.90;;;;;;5131204;27;20043;-65
2023/07/20 03:39:23;;;;;;;12.75;6.18;;;16.80;99.90;;;;;;5115985;27;20066;-65
2023/07/20 03:41:50;;;;;;;10.43;5.35;;;16.90;99.90;;;;;;5115737;27;20050;-65
2023/07/20 03:44:17;;;;;;;8.68;5.18;;;16.90;99.90;;;;;;5136473;27;20043;-65
2023/07/20 03:46:44;;;;;;;14.00;5.95;;;16.90;99.90;;;;;;5114974;27;20058;-65
2023/07/20 03:49:11;;;;;;;;;;;16.90;99.90;;;;;;5138929;27;20072;-65
2023/07/20 03:51:37;;;;;;;11.27;5.43;;;16.90;99.90;;;;;;5102717;27;20014;-65
2023/07/20 03:54:04;;;;;;;10.18;5.97;;;16.80;99.90;;;;;;5115945;27;20043;-65
2023/07/20 03:56:35;;;;;;;12.20;5.40;;;17.00;99.90;;;;;;5136178;27;20134;-65
2023/07/20 03:59:02;;;;;;;10.65;5.57;;;17.00;99.90;;;;;;5133335;27;20061;-65
2023/07/20 04:01:29;;;;;;;9.68;5.47;;;17.00;99.90;;;;;;5114870;27;20066;-65
2023/07/20 04:03:56;;;;;;;11.32;5.20;;;17.00;99.90;;;;;;5115536;27;20043;-65
2023/07/20 04:06:23;;;;;;;7.03;4.93;;;16.90;99.90;;;;;;5114145;27;20070;-65
2023/07/20 04:08:50;;;;;;;;;;;17.00;99.90;;;;;;5115618;27;20559;-65
2023/07/20 04:11:17;;;;;;;7.50;5.10;;;17.00;99.90;;;;;;5137750;27;19965;-65
2023/07/20 04:13:43;;;;;;;9.20;5.40;;;17.00;99.90;;;;;;5133998;27;20051;-65
2023/07/20 04:16:11;;;;;;;8.02;5.28;;;17.00;99.90;;;;;;5117797;27;20047;-65
2023/07/20 04:18:37;;;;;;;10.27;4.70;;;17.00;99.90;;;;;;5115200;27;20068;-65
2023/07/20 04:21:04;;;;;;;8.43;5.25;;;17.10;99.90;;;;;;5114961;27;20139;-65
2023/07/20 04:23:31;;;;;;;9.43;4.80;;;17.10;99.90;;;;;;5115629;27;20050;-65
2023/07/20 04:25:58;;;;;;;9.15;6.05;;;17.20;99.90;;;;;;5114122;27;20043;-65
2023/07/20 04:28:25;;;;;;;12.15;5.43;;;17.10;99.90;;;;;;5117653;27;20043;-65
2023/07/20 04:30:52;;;;;;;10.40;5.05;;;17.00;99.90;;;;;;5117739;27;20070;-65
2023/07/20 04:33:21;;;;;;;8.55;5.55;;;17.10;99.90;;;;;;5124343;27;20144;-65
2023/07/20 04:35:48;;;;;;;14.23;6.72;;;17.00;99.90;;;;;;5119843;27;20044;-65
2023/07/20 04:38:17;;;;;;;10.90;5.95;;;17.00;99.90;;;;;;5112904;27;20046;-65
2023/07/20 04:40:48;;;;;;;11.95;5.35;;;17.10;99.90;;;;;;5115044;27;20066;-65
2023/07/20 04:43:16;;;;;;;7.95;5.32;;;17.00;99.90;;;;;;5110739;27;20039;-65
2023/07/20 04:45:44;;;;;;;9.15;6.50;;;17.10;99.90;;;;;;5110959;27;20051;-65
2023/07/20 04:48:14;;;;;;;10.50;5.82;;;17.10;99.90;;;;;;5097616;27;20035;-65
2023/07/20 04:50:47;;;;;;;10.40;6.78;;;17.20;99.90;;;;;;5114934;27;20043;-64
2023/07/20 04:53:14;;;;;;;6.47;4.53;;;17.20;99.90;;;;;;5113166;27;20039;-64
2023/07/20 04:55:47;;;;;;;11.48;5.50;;;17.10;99.90;;;;;;5113828;27;20043;-64
2023/07/20 04:58:13;;;;;;;7.90;5.25;;;17.20;99.90;;;;;;5106489;27;20129;-65
2023/07/20 05:00:40;;;;;;;9.98;4.47;;;17.10;99.90;;;;;;5110028;27;20054;-65
2023/07/20 05:03:07;;;;;;;9.63;4.40;;;17.00;99.90;;;;;;5111115;27;20088;-65
2023/07/20 05:05:34;;;;;;;9.18;5.10;;;17.00;99.90;;;;;;5109150;27;20032;-65
2023/07/20 05:08:01;;;;;;;6.88;4.40;;;17.00;99.90;;;;;;5108862;27;20045;-65
2023/07/20 05:10:28;;;;;;;12.88;5.93;;;17.10;99.90;;;;;;5121955;27;20135;-65
2023/07/20 05:12:55;;;;;;;8.57;5.43;;;17.00;99.90;;;;;;5110884;27;20031;-66
2023/07/20 05:15:21;;;;;;;10.98;5.80;;;17.00;99.90;;;;;;5131493;27;20080;-66
2023/07/20 05:17:48;;;;;;;10.60;5.43;;;17.00;99.90;;;;;;5132426;27;20106;-66
2023/07/20 05:20:16;;;;;;;7.47;5.07;;;17.00;99.90;;;;;;5113961;27;20387;-66
2023/07/20 05:22:43;;;;;;;9.43;5.45;;;17.10;99.90;;;;;;5108340;27;20043;-66
2023/07/20 05:25:11;;;;;;;9.77;5.32;;;17.10;99.90;;;;;;5112300;27;20129;-66
2023/07/20 05:27:39;;;;;;;7.90;5.15;;;17.10;99.90;;;;;;5132037;27;20497;-66
2023/07/20 05:30:07;;;;;;;6.72;5.15;;;17.20;99.90;;;;;;5131823;27;20035;-66
2023/07/20 05:32:34;;;;;;;10.77;5.78;;;17.20;99.90;;;;;;5112729;27;20097;-66
2023/07/20 05:35:01;;;;;;;14.50;6.55;;;17.20;99.90;;;;;;5132316;27;20035;-66
2023/07/20 05:37:27;;;;;;;11.73;5.82;;;17.30;99.90;;;;;;5110615;28;20039;-66
2023/07/20 05:39:55;;;;;;;8.75;6.03;;;17.30;99.90;;;;;;5129878;27;20039;-66
2023/07/20 05:42:21;;;;;;;14.13;6.72;;;17.30;99.90;;;;;;5113457;27;20510;-66
2023/07/20 05:44:49;;;;;;;12.30;5.55;;;17.40;99.90;;;;;;5132072;27;20050;-66
2023/07/20 05:47:16;;;;;;;11.25;6.03;;;17.40;99.90;;;;;;5127397;27;20035;-66
2023/07/20 05:49:43;;;;;;;11.13;5.70;;;17.50;99.90;;;;;;5128112;27;20037;-66
2023/07/20 05:52:10;;;;;;;13.68;5.93;;;17.40;99.90;;;;;;5124217;27;20403;-66
2023/07/20 05:54:37;;;;;;;7.38;4.97;;;17.50;99.90;;;;;;5131749;27;20035;-66
2023/07/20 05:57:04;;;;;;;19.40;5.40;;;17.40;99.90;;;;;;5129155;28;20039;-66
2023/07/20 05:59:31;;;;;;;;;;;17.30;99.90;;;;;;5131993;28;20057;-66
2023/07/20 06:01:58;;;;;;;8.77;5.30;;;17.20;99.90;;;;;;5129774;27;19962;-66
2023/07/20 06:04:25;;;;;;;8.55;4.25;;;17.10;99.90;;;;;;5131667;27;20031;-66
2023/07/20 06:06:52;;;;;;;12.65;4.45;;;17.00;99.90;;;;;;5131363;28;20499;-66
2023/07/20 06:09:18;;;;;;;8.85;4.57;;;17.00;99.90;;;;;;5110918;28;20408;-66
2023/07/20 06:11:45;;;;;;;9.68;4.97;;;16.90;99.90;;;;;;5125976;27;20096;-66
2023/07/20 06:14:12;;;;;;;10.55;4.30;;;16.90;99.90;;;;;;5129734;27;20047;-66
2023/07/20 06:16:39;;;;;;;8.75;3.95;;;17.10;99.90;;;;;;5131815;27;20073;-66
2023/07/20 06:19:06;;;;;;;10.77;4.47;;;17.10;99.90;;;;;;5132440;27;20135;-66
2023/07/20 06:21:33;;;;;;;7.43;4.00;;;17.20;99.90;;;;;;5131360;27;20050;-66
2023/07/20 06:23:59;;;;;;;8.00;3.95;;;17.20;99.90;;;;;;5133203;27;20035;-66
2023/07/20 06:26:26;;;;;;;6.80;3.92;;;17.30;99.90;;;;;;5135977;27;20543;-66
2023/07/20 06:28:53;;;;;;;7.43;3.90;;;17.40;99.90;;;;;;5135675;27;20046;-66
2023/07/20 06:31:20;;;;;;;11.52;4.13;;;17.20;99.90;;;;;;5131602;27;20027;-66
2023/07/20 06:33:47;;;;;;;13.05;4.38;;;17.20;99.90;;;;;;5136090;27;20544;-66
2023/07/20 06:36:17;;;;;;;7.35;4.20;;;17.20;99.90;;;;;;5133717;27;20039;-66
2023/07/20 06:38:44;;;;;;;4.68;3.30;;;17.20;99.90;;;;;;5131734;27;20401;-66
2023/07/20 06:41:31;;;;;;;8.18;4.00;;;17.10;99.90;;;;;;5135911;27;20484;-66
2023/07/20 06:44:02;;;;;;;8.20;3.65;;;17.10;99.90;;;;;;5135613;27;20054;-66
2023/07/20 06:46:29;;;;;;;12.20;4.18;;;17.10;99.90;;;;;;5116396;27;20499;-66
2023/07/20 06:48:56;;;;;;;5.28;3.10;;;17.10;99.90;;;;;;5135472;27;20050;-66
2023/07/20 06:51:26;;;;;;;9.27;3.25;;;17.20;99.90;;;;;;5131537;27;20035;-66
2023/07/20 06:53:53;;;;;;;7.75;3.45;;;17.30;99.90;;;;;;5132434;27;20037;-66
2023/07/20 06:56:20;;;;;;;6.30;3.53;;;17.40;99.90;;;;;;5135303;27;20039;-66
2023/07/20 06:58:51;;;;;;;5.35;3.38;;;17.60;99.90;;;;;;5134286;27;20047;-66
2023/07/20 07:01:18;;;;;;;5.30;3.20;;;17.60;99.90;;;;;;5128141;27;20035;-66
2023/07/20 07:03:45;;;;;;;6.28;3.22;;;17.60;99.90;;;;;;5135522;27;20039;-66
2023/07/20 07:06:12;;;;;;;9.55;3.25;;;17.60;99.90;;;;;;5133121;27;20035;-66
2023/07/20 07:08:39;;;;;;;7.28;2.38;;;17.60;99.90;;;;;;5129871;27;20045;-66
2023/07/20 07:11:06;;;;;;;5.38;2.47;;;17.70;99.90;;;;;;5134722;27;20066;-66
2023/07/20 07:13:33;;;;;;;6.07;2.90;;;17.70;99.90;;;;;;5135205;27;20061;-66
2023/07/20 07:16:01;;;;;;;3.47;2.40;;;18.10;99.90;;;;;;5116130;27;20483;-66
2023/07/20 07:18:28;;;;;;;4.65;2.80;;;18.50;99.90;;;;;;5130407;27;20044;-66
2023/07/20 07:20:57;;;;;;;5.60;2.33;;;18.80;99.90;;;;;;5132226;27;20115;-66
2023/07/20 07:23:28;;;;;;;8.45;3.00;;;18.90;99.90;;;;;;5131808;27;20070;-66
2023/07/20 07:25:55;;;;;;;4.90;2.72;;;19.00;99.90;;;;;;5131830;27;20038;-66
2023/07/20 07:28:21;;;;;;;5.60;2.92;;;19.20;99.90;;;;;;5133846;27;20039;-66
2023/07/20 07:30:48;;;;;;;8.10;2.70;;;19.40;99.90;;;;;;5134108;27;20035;-66
2023/07/20 07:33:15;;;;;;;13.05;2.83;;;19.40;99.90;;;;;;5125565;27;20039;-66
2023/07/20 07:35:42;;;;;;;6.97;2.15;;;19.50;99.90;;;;;;5135080;27;20039;-66
2023/07/20 07:38:09;;;;;;;9.02;2.38;;;19.50;99.90;;;;;;5134167;27;20089;-66
2023/07/20 07:40:55;;;;;;;9.15;3.00;;;19.50;99.90;;;;;;5112318;27;20101;-66
2023/07/20 07:43:22;;;;;;;7.30;2.65;;;19.60;99.90;;;;;;5127423;27;20427;-66
2023/07/20 07:45:49;;;;;;;5.43;2.78;;;19.90;99.90;;;;;;5134678;27;20039;-66
2023/07/20 07:48:17;;;;;;;3.80;2.22;;;20.10;99.90;;;;;;5133933;27;20399;-66
2023/07/20 07:50:43;;;;;;;2.75;2.13;;;20.40;99.90;;;;;;5134659;27;20043;-66
2023/07/20 07:53:10;;;;;;;6.43;2.55;;;20.70;99.90;;;;;;5125010;27;20038;-66
2023/07/20 07:55:37;;;;;;;3.88;2.20;;;20.80;99.90;;;;;;5116270;27;20125;-66
2023/07/20 07:58:04;;;;;;;4.78;2.35;;;20.80;99.90;;;;;;5133955;27;20058;-66
2023/07/20 08:00:31;;;;;;;6.88;2.35;;;20.90;99.90;;;;;;5130646;27;20043;-66
2023/07/20 08:02:58;;;;;;;3.15;2.28;;;20.90;99.90;;;;;;5131224;27;20051;-66
2023/07/20 08:05:26;;;;;;;;;;;20.80;99.90;;;;;;5132568;27;20050;-66
2023/07/20 08:07:53;;;;;;;6.82;2.33;;;20.90;99.90;;;;;;5130065;27;19968;-66
2023/07/20 08:10:19;;;;;;;7.78;2.22;;;20.80;99.90;;;;;;5133398;27;20407;-66
2023/07/20 08:12:46;;;;;;;6.32;1.98;;;20.80;99.90;;;;;;5134118;27;20035;-66
2023/07/20 08:15:14;;;;;;;5.82;2.25;;;20.80;99.90;;;;;;5130710;27;20047;-66
2023/07/20 08:17:43;;;;;;;6.97;2.50;;;20.70;99.90;;;;;;5134030;27;20043;-66
2023/07/20 08:20:12;;;;;;;12.45;2.90;;;20.70;99.90;;;;;;5133307;27;20479;-66
2023/07/20 08:22:39;;;;;;;7.45;2.20;;;20.80;99.90;;;;;;5134003;27;20070;-66
2023/07/20 08:25:06;;;;;;;;;;;20.80;99.90;;;;;;5132702;27;20039;-66
2023/07/20 08:27:33;;;;;;;7.18;2.38;;;20.90;99.90;;;;;;5133865;27;19963;-67
2023/07/20 08:30:00;;;;;;;5.70;2.10;;;20.90;99.90;;;;;;5133135;27;20039;-66
2023/07/20 08:32:27;;;;;;;4.30;2.83;;;21.00;99.90;;;;;;5130512;27;20040;-66
2023/07/20 08:34:54;;;;;;;5.50;2.33;;;21.00;99.90;;;;;;5122405;27;20035;-66
2023/07/20 08:37:21;;;;;;;7.68;3.03;;;20.90;99.90;;;;;;5133607;27;20039;-66
2023/07/20 08:39:47;;;;;;;3.28;2.25;;;20.80;99.90;;;;;;5114482;27;20480;-66
2023/07/20 08:42:14;;;;;;;3.45;2.22;;;20.70;99.90;;;;;;5128668;27;20040;-66
2023/07/20 08:44:42;;;;;;;;;;;20.70;99.90;;;;;;5127640;27;20035;-66
2023/07/20 08:47:12;;;;;;;7.65;2.45;;;21.00;99.90;;;;;;5133142;27;19919;-66
2023/07/20 08:49:39;;;;;;;3.55;1.88;;;21.20;99.90;;;;;;5114593;27;20488;-66
2023/07/20 08:52:07;;;;;;;7.25;2.67;;;21.00;99.90;;;;;;5124361;27;20035;-66
2023/07/20 08:54:35;;;;;;;6.50;2.42;;;20.90;99.90;;;;;;5125721;27;20054;-66
2023/07/20 08:57:04;;;;;;;5.03;1.92;;;20.60;99.90;;;;;;5133021;27;20065;-66
2023/07/20 08:59:32;;;;;;;4.80;2.55;;;20.50;99.90;;;;;;5132896;27;20043;-66
2023/07/20 09:02:00;;;;;;;13.88;2.47;;;20.60;99.90;;;;;;5128456;27;20051;-66
2023/07/20 09:04:27;;;;;;;4.00;2.25;;;20.90;99.90;;;;;;5124245;27;20487;-66
2023/07/20 09:06:53;;;;;;;8.55;2.20;;;21.30;99.90;;;;;;5133104;27;20038;-66
2023/07/20 09:09:21;;;;;;;5.70;2.15;;;21.80;99.90;;;;;;5125925;27;20046;-66
2023/07/20 09:11:48;;;;;;;;;;;22.50;99.90;;;;;;5133305;27;20043;-66
2023/07/20 09:14:15;;;;;;;6.53;2.00;;;22.70;99.90;;;;;;5132329;27;19919;-66
2023/07/20 09:16:49;;;;;;;6.38;3.00;;;22.80;99.90;;;;;;5126948;27;20051;-66
2023/07/20 09:19:17;;;;;;;6.22;2.63;;;22.80;99.90;;;;;;5112143;27;20511;-66
2023/07/20 09:21:51;;;;;;;5.07;2.40;;;23.10;99.90;;;;;;5114279;27;20057;-66
2023/07/20 09:24:19;;;;;;;2.53;2.15;;;23.30;99.90;;;;;;5110368;27;20035;-66
2023/07/20 09:26:50;;;;;;;10.98;2.65;;;23.40;99.90;;;;;;5126244;27;20039;-66
2023/07/20 09:29:21;;;;;;;4.60;2.38;;;23.30;99.90;;;;;;5131993;27;20035;-66
2023/07/20 09:32:04;;;;;;;6.28;2.30;;;23.10;99.90;;;;;;5132428;27;20039;-66
2023/07/20 09:34:33;;;;;;;4.78;2.15;;;22.70;99.90;;;;;;5126795;27;20039;-66
2023/07/20 09:37:03;;;;;;;4.30;2.13;;;22.50;99.90;;;;;;5132696;27;20483;-66
2023/07/20 09:39:31;;;;;;;3.97;2.35;;;22.10;99.90;;;;;;5123693;27;20113;-66
2023/07/20 09:42:02;;;;;;;3.70;2.10;;;21.90;99.90;;;;;;5129974;27;20039;-66
2023/07/20 09:44:31;;;;;;;4.25;2.35;;;21.60;99.90;;;;;;5124044;27;20035;-66
2023/07/20 09:47:03;;;;;;;3.75;2.20;;;21.50;99.90;;;;;;5132119;27;20058;-66
2023/07/20 09:49:31;;;;;;;5.45;2.50;;;21.40;99.90;;;;;;5123689;27;20039;-66
2023/07/20 09:52:19;;;;;;;5.78;2.70;;;21.40;99.90;;;;;;5121413;27;20040;-66
2023/07/20 09:54:49;;;;;;;4.80;2.40;;;21.40;99.90;;;;;;5131757;27;20042;-66
2023/07/20 09:57:17;;;;;;;6.18;2.20;;;21.20;99.90;;;;;;5131158;28;20084;-66
2023/07/20 09:59:43;;;;;;;6.07;2.67;;;21.10;99.90;;;;;;5132156;27;20383;-66
2023/07/20 10:02:22;;;;;;;5.82;2.58;;;21.00;99.90;;;;;;5123172;28;20040;-66
2023/07/20 10:04:53;;;;;;;4.15;2.30;;;20.90;99.90;;;;;;5125764;28;20119;-66
2023/07/20 10:07:22;;;;;;;3.45;1.92;;;20.80;99.90;;;;;;5130914;27;20039;-66
2023/07/20 10:09:52;;;;;;;6.53;2.60;;;20.70;99.90;;;;;;5130577;27;20118;-66
2023/07/20 10:12:22;;;;;;;4.57;2.75;;;20.60;99.90;;;;;;5130095;28;20063;-66
2023/07/20 10:15:05;;;;;;;3.50;2.30;;;20.70;99.90;;;;;;5130482;28;20050;-66
2023/07/20 10:17:32;;;;;;;4.78;2.08;;;20.90;99.90;;;;;;5132155;28;20035;-66
2023/07/20 10:20:03;;;;;;;4.38;2.28;;;21.20;99.90;;;;;;5131528;27;20069;-66
2023/07/20 10:22:34;;;;;;;3.80;2.15;;;21.50;99.90;;;;;;5129833;28;20043;-66
2023/07/20 10:25:08;;;;;;;6.00;2.47;;;21.90;99.90;;;;;;5113582;28;20044;-66
2023/07/20 10:27:35;;;;;;;4.47;1.88;;;22.10;99.90;;;;;;5132129;28;20039;-66
2023/07/20 10:30:04;;;;;;;;;;;22.30;99.90;;;;;;5132077;27;20031;-66
2023/07/20 10:32:31;;;;;;;7.47;2.70;;;22.40;99.90;;;;;;5131893;28;19972;-66
2023/07/20 10:34:58;;;;;;;4.00;2.30;;;22.40;99.90;;;;;;5112763;28;20437;-66
2023/07/20 10:37:51;;;;;;;4.40;2.30;;;22.40;99.90;;;;;;5130597;27;20036;-66
2023/07/20 10:40:33;;;;;;;3.25;2.38;;;22.60;99.90;;;;;;5131406;28;20039;-66
2023/07/20 10:43:04;;;;;;;5.53;2.55;;;22.80;99.90;;;;;;5123996;27;20039;-66
2023/07/20 10:45:47;;;;;;;4.57;2.05;;;23.00;99.90;;;;;;5124463;28;20087;-66
2023/07/20 10:48:17;;;;;;;5.70;2.13;;;23.20;99.90;;;;;;5124795;27;20426;-66
2023/07/20 10:50:43;;;;;;;5.32;2.28;;;23.60;99.90;;;;;;5130977;27;20044;-66
2023/07/20 10:53:19;;;;;;;3.65;2.33;;;23.80;99.90;;;;;;5122554;27;20091;-66
2023/07/20 10:55:50;;;;;;;4.47;2.22;;;24.00;99.90;;;;;;5123628;27;20046;-66
2023/07/20 10:58:17;;;;;;;3.92;2.00;;;24.00;99.90;;;;;;5131533;27;20039;-66
2023/07/20 11:01:04;;;;;;;3.88;2.28;;;24.30;99.90;;;;;;5130153;28;20043;-66
2023/07/20 11:03:35;;;;;;;6.32;2.15;;;24.60;99.90;;;;;;5130692;27;20054;-66
2023/07/20 11:06:25;;;;;;;7.32;2.47;;;24.90;99.90;;;;;;5132311;27;20035;-66
2023/07/20 11:09:14;;;;;;;5.78;2.38;;;24.60;99.90;;;;;;5129563;27;20043;-66
2023/07/20 11:12:02;;;;;;;4.53;2.00;;;24.40;99.90;;;;;;5132743;27;20092;-66
2023/07/20 11:14:34;;;;;;;3.80;2.05;;;24.40;99.90;;;;;;5133202;27;20070;-66
2023/07/20 11:17:12;;;;;;;8.55;2.25;;;24.60;99.90;;;;;;5135075;27;20130;-66
2023/07/20 11:19:40;;;;;;;5.00;2.00;;;24.50;99.90;;;;;;5133466;27;20043;-66
2023/07/20 11:22:10;;;;;;;6.28;2.28;;;24.50;99.90;;;;;;5131777;27;20043;-66
2023/07/20 11:24:40;;;;;;;7.45;2.63;;;24.30;99.90;;;;;;5126573;27;20050;-66
2023/07/20 11:27:07;;;;;;;3.67;2.08;;;24.50;99.90;;;;;;5133667;27;20038;-66
2023/07/20 11:29:36;;;;;;;9.25;2.13;;;24.50;99.90;;;;;;5108401;27;20036;-66
2023/07/20 11:32:03;;;;;;;9.18;2.70;;;24.70;99.90;;;;;;5126470;27;20487;-66
2023/07/20 11:34:32;;;;;;;5.47;2.20;;;24.60;99.90;;;;;;5127111;27;20039;-66
2023/07/20 11:36:59;;;;;;;6.68;2.30;;;24.50;99.90;;;;;;5133747;27;20039;-66
2023/07/20 11:39:29;;;;;;;6.50;2.35;;;24.40;99.90;;;;;;5134471;27;20057;-66
2023/07/20 11:41:57;;;;;;;5.07;2.40;;;24.40;99.90;;;;;;5134814;27;20074;-66
2023/07/20 11:44:28;;;;;;;2.97;1.95;;;24.30;99.90;;;;;;5114095;27;20035;-66
2023/07/20 11:47:06;;;;;;;10.77;2.60;;;24.20;99.90;;;;;;5132817;27;20483;-66
2023/07/20 11:49:39;;;;;;;;;;;24.20;99.90;;;;;;5133075;27;20039;-66
2023/07/20 11:52:11;;;;;;;5.35;2.40;;;24.20;99.90;;;;;;5129844;27;19929;-66
2023/07/20 11:54:39;;;;;;;5.38;2.38;;;24.30;99.90;;;;;;5131770;27;23114;-66
2023/07/20 11:57:07;;;;;;;3.28;1.90;;;24.10;99.90;;;;;;5128645;27;20092;-66
2023/07/20 11:59:33;;;;;;;;;;;24.20;99.90;;;;;;5131526;27;20053;-66
2023/07/20 12:02:05;;;;;;;8.13;2.25;;;24.30;99.90;;;;;;5123364;27;19923;-66
2023/07/20 12:04:33;;;;;;;5.05;2.40;;;24.30;99.90;;;;;;5134231;27;20039;-66
2023/07/20 12:07:00;;;;;;;5.50;2.30;;;24.20;99.90;;;;;;5124992;27;20547;-66
2023/07/20 12:09:27;;;;;;;;;;;24.20;99.90;;;;;;5134404;27;20049;-66
2023/07/20 12:12:12;;;;;;;5.65;2.55;;;23.90;99.90;;;;;;5117819;27;19919;-66
2023/07/20 12:14:39;;;;;;;6.45;2.78;;;24.00;99.90;;;;;;5133314;27;20054;-66
2023/07/20 12:17:09;;;;;;;8.63;2.42;;;24.00;99.90;;;;;;5128589;27;20043;-66
2023/07/20 12:19:40;;;;;;;4.85;2.10;;;24.00;99.90;;;;;;5114569;27;20067;-66
2023/07/20 12:22:07;;;;;;;2.88;2.30;;;23.80;99.90;;;;;;5115642;27;20515;-66
2023/07/20 12:24:34;;;;;;;5.38;2.00;;;23.60;99.90;;;;;;5114505;27;20122;-66
2023/07/20 12:27:01;;;;;;;8.23;2.80;;;23.50;99.90;;;;;;5133727;27;20050;-66
2023/07/20 12:29:28;;;;;;;5.45;2.17;;;23.50;99.90;;;;;;5127083;27;20046;-66
2023/07/20 12:31:55;;;;;;;6.18;2.22;;;23.60;99.90;;;;;;5129658;27;20114;-66
2023/07/20 12:34:22;;;;;;;3.38;2.63;;;23.70;99.90;;;;;;5125032;27;20190;-66
2023/07/20 12:36:48;;;;;;;3.30;2.10;;;23.90;99.90;;;;;;5120277;27;20398;-66
2023/07/20 12:39:15;;;;;;;3.47;2.05;;;24.40;99.90;;;;;;5133358;27;20042;-66
2023/07/20 12:41:42;;;;;;;4.30;2.05;;;25.00;99.90;;;;;;5126801;27;20044;-66
2023/07/20 12:44:09;;;;;;;4.78;2.35;;;25.60;99.90;;;;;;5132474;27;20043;-66
2023/07/20 12:46:37;;;;;;;4.38;1.88;;;25.90;99.90;;;;;;5125748;27;20610;-66
2023/07/20 12:49:04;;;;;;;4.80;2.83;;;25.90;99.90;;;;;;5132753;27;20403;-66
2023/07/20 12:51:30;;;;;;;7.82;2.50;;;25.90;99.90;;;;;;5126387;27;20067;-66
2023/07/20 12:53:57;;;;;;;3.63;2.38;;;25.50;99.90;;;;;;5133260;27;20058;-66
2023/07/20 12:56:24;;;;;;;5.18;2.05;;;25.00;99.90;;;;;;5125500;27;20043;-66